Time;durP1;ratioP1;P1;durP2;ratioP2;P2;SDS_P1;SDS_P2;PMS_P1;PMS_P2;Temp;Humidity;BMP_temperature;BMP_pressure;BME280_temperature;BME280_humidity;BME280_pressure;Samples;Min_cycle;Max_cycle;Signal;HPM_P1;HPM_P2
2023/04/03 00:02:08;;;;;;;10.57;6.00;;;9.80;99.90;;;;;;4972993;28;20510;-74
2023/04/03 00:04:34;;;;;;;10.75;5.93;;;9.60;99.90;;;;;;4976253;28;20041;-74
2023/04/03 00:07:00;;;;;;;10.52;5.28;;;9.50;99.90;;;;;;4976840;28;20118;-74
2023/04/03 00:09:26;;;;;;;9.95;5.03;;;9.40;99.90;;;;;;4974954;28;20117;-73
2023/04/03 00:11:52;;;;;;;11.73;5.45;;;9.30;99.90;;;;;;4973420;28;20074;-71
2023/04/03 00:14:17;;;;;;;13.27;6.15;;;9.20;99.90;;;;;;4975563;28;20594;-74
2023/04/03 00:16:43;;;;;;;13.60;6.50;;;9.10;99.90;;;;;;4976348;28;20094;-73
2023/04/03 00:19:11;;;;;;;9.82;5.43;;;8.90;99.90;;;;;;4976389;28;20478;-74
2023/04/03 00:21:37;;;;;;;10.00;5.95;;;8.90;99.90;;;;;;4966135;28;20052;-72
2023/04/03 00:24:03;;;;;;;11.73;6.45;;;8.80;99.90;;;;;;4975029;28;20485;-73
2023/04/03 00:26:29;;;;;;;12.10;6.53;;;8.70;99.90;;;;;;4975795;28;20037;-73
2023/04/03 00:28:55;;;;;;;10.85;5.82;;;8.70;99.90;;;;;;4975909;28;20060;-74
2023/04/03 00:31:21;;;;;;;10.15;5.82;;;8.70;99.90;;;;;;4958591;28;20090;-74
2023/04/03 00:33:47;;;;;;;11.65;6.38;;;8.70;99.90;;;;;;4975889;28;20030;-73
2023/04/03 00:36:13;;;;;;;11.55;6.60;;;8.70;99.90;;;;;;4958649;28;20030;-73
2023/04/03 00:38:40;;;;;;;11.05;5.97;;;8.70;99.90;;;;;;4975713;28;20363;-72
2023/04/03 00:41:06;;;;;;;12.15;6.90;;;8.70;99.90;;;;;;4976170;28;20033;-74
2023/04/03 00:43:32;;;;;;;11.75;6.43;;;8.60;99.90;;;;;;4975468;28;20140;-73
2023/04/03 00:45:58;;;;;;;18.25;7.00;;;8.60;99.90;;;;;;4975914;28;20374;-74
2023/04/03 00:48:30;;;;;;;12.48;6.93;;;8.50;99.90;;;;;;4973315;28;20033;-73
2023/04/03 00:50:58;;;;;;;12.27;6.67;;;8.40;99.90;;;;;;4976078;28;20478;-74
2023/04/03 00:53:35;;;;;;;12.75;6.32;;;8.30;99.90;;;;;;4975408;28;20109;-75
2023/04/03 00:56:01;;;;;;;13.50;6.40;;;8.30;99.90;;;;;;4963794;28;20035;-74
2023/04/03 00:58:39;;;;;;;11.88;6.75;;;8.30;99.90;;;;;;4956266;28;20026;-73
2023/04/03 01:01:10;;;;;;;12.63;6.47;;;8.20;99.90;;;;;;4973233;28;20050;-73
2023/04/03 01:03:36;;;;;;;14.07;6.68;;;8.10;99.90;;;;;;4975515;28;20395;-73
2023/04/03 01:06:04;;;;;;;18.60;7.13;;;8.10;99.90;;;;;;4971247;28;20062;-73
2023/04/03 01:08:30;;;;;;;12.52;6.70;;;8.10;99.90;;;;;;4947587;28;20461;-73
2023/04/03 01:10:56;;;;;;;11.32;6.40;;;8.00;99.90;;;;;;4955133;28;20038;-72
2023/04/03 01:13:30;;;;;;;11.32;6.13;;;7.90;99.90;;;;;;4963866;28;20046;-74
2023/04/03 01:15:56;;;;;;;13.10;7.93;;;7.90;99.90;;;;;;4964323;28;20027;-73
2023/04/03 01:18:26;;;;;;;14.07;6.95;;;7.80;99.90;;;;;;4965794;28;20169;-74
2023/04/03 01:20:55;;;;;;;13.32;6.70;;;7.80;99.90;;;;;;4973585;28;20031;-72
2023/04/03 01:23:47;;;;;;;12.82;6.47;;;7.80;99.90;;;;;;4957484;28;20023;-73
2023/04/03 01:26:13;;;;;;;16.38;7.55;;;7.90;99.90;;;;;;4954112;28;20031;-74
2023/04/03 01:28:39;;;;;;;15.55;7.47;;;7.80;99.90;;;;;;4957660;28;20034;-74
2023/04/03 01:31:23;;;;;;;12.88;7.25;;;7.70;99.90;;;;;;4974847;28;20035;-72
2023/04/03 01:33:49;;;;;;;12.82;6.78;;;7.70;99.90;;;;;;4957423;28;20034;-71
2023/04/03 01:36:24;;;;;;;11.70;6.88;;;7.60;99.90;;;;;;4971937;28;20030;-74
2023/04/03 01:38:50;;;;;;;12.90;7.15;;;7.60;99.90;;;;;;4973311;28;20034;-75
2023/04/03 01:41:16;;;;;;;15.95;7.25;;;7.60;99.90;;;;;;4971975;28;20475;-73
2023/04/03 01:43:44;;;;;;;12.98;7.43;;;7.60;99.90;;;;;;4948641;28;20050;-72
2023/04/03 01:46:10;;;;;;;13.77;7.45;;;7.60;99.90;;;;;;4972945;28;20034;-73
2023/04/03 01:48:36;;;;;;;15.15;7.90;;;7.50;99.90;;;;;;4956888;28;20505;-73
2023/04/03 01:51:02;;;;;;;13.77;7.47;;;7.50;99.90;;;;;;4970128;28;20023;-72
2023/04/03 01:53:28;;;;;;;13.75;7.80;;;7.50;99.90;;;;;;4973281;28;20072;-73
2023/04/03 01:55:54;;;;;;;18.13;7.65;;;7.40;99.90;;;;;;4974471;28;20031;-73
2023/04/03 01:58:20;;;;;;;13.23;7.20;;;7.40;99.90;;;;;;4956954;28;20483;-73
2023/04/03 02:00:48;;;;;;;13.70;7.53;;;7.40;99.90;;;;;;4972982;28;20069;-73
2023/04/03 02:03:14;;;;;;;17.52;7.10;;;7.40;99.90;;;;;;4957176;28;20371;-73
2023/04/03 02:05:41;;;;;;;14.52;7.18;;;7.30;99.90;;;;;;4973198;28;20386;-74
2023/04/03 02:08:07;;;;;;;13.23;7.47;;;7.30;99.90;;;;;;4974313;28;20031;-74
2023/04/03 02:10:34;;;;;;;14.27;7.43;;;7.30;99.90;;;;;;4974261;28;20030;-74
2023/04/03 02:13:00;;;;;;;16.67;7.72;;;7.30;99.90;;;;;;4974777;28;20045;-74
2023/04/03 02:15:26;;;;;;;15.02;7.45;;;7.30;99.90;;;;;;4972624;28;20023;-74
2023/04/03 02:17:52;;;;;;;12.95;7.50;;;7.30;99.90;;;;;;4973204;28;20643;-74
2023/04/03 02:20:18;;;;;;;14.15;8.00;;;7.20;99.90;;;;;;4970023;28;20074;-73
2023/04/03 02:22:45;;;;;;;11.88;6.72;;;7.30;99.90;;;;;;4972290;28;20382;-73
2023/04/03 02:25:11;;;;;;;12.57;7.25;;;7.20;99.90;;;;;;4972777;28;20106;-73
2023/04/03 02:27:37;;;;;;;14.20;6.90;;;7.20;99.90;;;;;;4952988;28;20451;-71
2023/04/03 02:30:04;;;;;;;15.98;7.45;;;7.20;99.90;;;;;;4972500;28;20031;-72
2023/04/03 02:32:30;;;;;;;12.82;6.82;;;7.20;99.90;;;;;;4947209;28;20141;-73
2023/04/03 02:34:56;;;;;;;12.20;6.78;;;7.30;99.90;;;;;;4952287;28;20023;-73
2023/04/03 02:37:22;;;;;;;16.33;8.90;;;7.20;99.90;;;;;;4972022;28;20026;-72
2023/04/03 02:39:48;;;;;;;12.52;7.15;;;7.20;99.90;;;;;;4972633;28;20022;-72
2023/04/03 02:42:14;;;;;;;14.13;8.00;;;7.30;99.90;;;;;;4972329;28;20047;-73
2023/04/03 02:44:40;;;;;;;14.75;8.30;;;7.30;99.90;;;;;;4972039;28;20045;-72
2023/04/03 02:47:08;;;;;;;21.75;10.60;;;7.30;99.90;;;;;;4972597;28;20118;-73
2023/04/03 02:49:34;;;;;;;17.48;9.45;;;7.30;99.90;;;;;;4955829;28;20114;-74
2023/04/03 02:52:00;;;;;;;15.30;7.80;;;7.30;99.90;;;;;;4976316;28;20026;-73
2023/04/03 02:54:28;;;;;;;14.82;8.25;;;7.30;99.90;;;;;;4955932;28;20026;-74
2023/04/03 02:56:55;;;;;;;14.23;7.60;;;7.20;99.90;;;;;;4956262;28;20057;-71
2023/04/03 02:59:21;;;;;;;13.45;7.30;;;7.30;99.90;;;;;;4956070;28;20031;-74
2023/04/03 03:01:47;;;;;;;12.90;6.97;;;7.30;99.90;;;;;;4973520;28;20159;-73
2023/04/03 03:04:13;;;;;;;14.38;6.65;;;7.20;99.90;;;;;;4973233;28;20022;-74
2023/04/03 03:06:39;;;;;;;12.77;7.35;;;7.30;99.90;;;;;;4971488;28;20482;-72
2023/04/03 03:09:06;;;;;;;22.33;8.93;;;7.20;99.90;;;;;;4972786;28;20112;-73
2023/04/03 03:11:31;;;;;;;14.77;8.00;;;7.20;99.90;;;;;;4972939;28;20479;-73
2023/04/03 03:13:58;;;;;;;14.10;8.10;;;7.20;99.90;;;;;;4971805;28;20053;-74
2023/04/03 03:16:25;;;;;;;14.82;7.30;;;7.20;99.90;;;;;;4972695;28;20035;-73
2023/04/03 03:18:50;;;;;;;18.08;9.25;;;7.20;99.90;;;;;;4966595;28;20031;-73
2023/04/03 03:21:16;;;;;;;17.98;9.40;;;7.20;99.90;;;;;;4971058;28;20065;-72
2023/04/03 03:23:42;;;;;;;15.20;8.32;;;7.20;99.90;;;;;;4973039;28;20030;-73
2023/04/03 03:26:10;;;;;;;14.82;7.53;;;7.20;99.90;;;;;;4973036;28;20070;-74
2023/04/03 03:28:37;;;;;;;13.48;7.22;;;7.20;99.90;;;;;;4972767;28;20378;-74
2023/04/03 03:31:05;;;;;;;12.07;7.32;;;7.10;99.90;;;;;;4971753;28;20033;-73
2023/04/03 03:33:32;;;;;;;14.15;7.70;;;7.10;99.90;;;;;;4972795;28;20042;-71
2023/04/03 03:35:59;;;;;;;15.20;8.10;;;7.00;99.90;;;;;;4969873;28;20050;-72
2023/04/03 03:38:25;;;;;;;13.70;7.50;;;7.00;99.90;;;;;;4952486;28;20034;-74
2023/04/03 03:40:51;;;;;;;15.65;7.93;;;7.00;99.90;;;;;;4952991;28;20039;-72
2023/04/03 03:43:20;;;;;;;14.43;7.55;;;7.10;99.90;;;;;;4956270;28;20047;-74
2023/04/03 03:45:52;;;;;;;13.15;7.88;;;7.00;99.90;;;;;;4955548;28;20479;-74
2023/04/03 03:48:19;;;;;;;14.43;8.00;;;7.00;99.90;;;;;;4972522;28;20498;-73
2023/04/03 03:50:45;;;;;;;12.48;7.22;;;7.00;99.90;;;;;;4954596;28;20035;-73
2023/04/03 03:53:11;;;;;;;15.85;8.27;;;7.00;99.90;;;;;;4955361;28;20503;-73
2023/04/03 03:55:38;;;;;;;14.48;8.75;;;6.90;99.90;;;;;;4960784;28;20089;-73
2023/04/03 03:58:04;;;;;;;14.38;8.18;;;6.90;99.90;;;;;;4952411;28;20042;-72
2023/04/03 04:00:31;;;;;;;16.55;9.35;;;6.90;99.90;;;;;;4954701;28;20039;-74
2023/04/03 04:02:57;;;;;;;16.60;8.90;;;6.90;99.90;;;;;;4972689;28;20114;-72
2023/04/03 04:05:24;;;;;;;17.45;8.95;;;6.80;99.90;;;;;;4946999;28;20023;-71
2023/04/03 04:07:53;;;;;;;17.88;10.00;;;6.80;99.90;;;;;;4971230;28;20039;-75
2023/04/03 04:10:19;;;;;;;15.90;9.50;;;6.80;99.90;;;;;;4965876;28;20019;-72
2023/04/03 04:12:45;;;;;;;16.20;8.85;;;6.80;99.90;;;;;;4944624;28;20755;-74
2023/04/03 04:15:12;;;;;;;15.05;7.90;;;6.70;99.90;;;;;;4952720;28;20023;-73
2023/04/03 04:17:39;;;;;;;13.95;8.30;;;6.60;99.90;;;;;;4960078;28;20039;-74
2023/04/03 04:20:08;;;;;;;17.00;8.93;;;6.60;99.90;;;;;;4955175;28;20489;-72
2023/04/03 04:22:35;;;;;;;17.42;10.07;;;6.50;99.90;;;;;;4954928;28;20434;-73
2023/04/03 04:25:01;;;;;;;18.80;9.73;;;6.50;99.90;;;;;;4971046;28;20023;-74
2023/04/03 04:27:27;;;;;;;19.15;10.00;;;6.40;99.90;;;;;;4955182;28;20513;-71
2023/04/03 04:29:53;;;;;;;16.88;9.23;;;6.40;99.90;;;;;;4954607;28;20526;-72
2023/04/03 04:32:20;;;;;;;17.30;9.82;;;6.40;99.90;;;;;;4955939;28;20038;-72
2023/04/03 04:34:46;;;;;;;19.27;9.55;;;6.40;99.90;;;;;;4955708;28;20035;-74
2023/04/03 04:37:12;;;;;;;18.50;9.50;;;6.30;99.90;;;;;;4943385;29;20027;-72
2023/04/03 04:39:38;;;;;;;14.93;9.02;;;6.30;99.90;;;;;;4964846;28;20034;-71
2023/04/03 04:42:06;;;;;;;15.93;9.50;;;6.30;99.90;;;;;;4975869;28;20043;-72
2023/04/03 04:44:33;;;;;;;17.65;9.40;;;6.30;99.90;;;;;;4956236;28;20491;-72
2023/04/03 04:46:59;;;;;;;18.00;9.85;;;6.30;99.90;;;;;;4958207;28;20030;-75
2023/04/03 04:49:25;;;;;;;19.20;9.75;;;6.30;99.90;;;;;;4969241;28;20510;-72
2023/04/03 04:51:52;;;;;;;14.38;8.52;;;6.30;99.90;;;;;;4946115;28;20124;-72
2023/04/03 04:54:20;;;;;;;14.88;9.13;;;6.20;99.90;;;;;;4972278;28;20073;-72
2023/04/03 04:56:47;;;;;;;17.02;9.50;;;6.20;99.90;;;;;;4972695;28;20023;-74
2023/04/03 04:59:13;;;;;;;15.48;8.27;;;6.10;99.90;;;;;;4938606;28;20528;-72
2023/04/03 05:01:40;;;;;;;16.13;9.45;;;6.10;99.90;;;;;;4970152;28;20030;-73
2023/04/03 05:04:10;;;;;;;19.92;11.77;;;6.00;99.90;;;;;;4957355;28;20085;-73
2023/04/03 05:06:36;;;;;;;19.55;12.13;;;6.00;99.90;;;;;;4973704;28;20031;-73
2023/04/03 05:09:05;;;;;;;17.55;10.60;;;6.10;99.90;;;;;;4944602;28;20023;-73
2023/04/03 05:11:32;;;;;;;26.65;15.45;;;6.10;99.90;;;;;;4956133;28;20097;-73
2023/04/03 05:13:58;;;;;;;20.95;11.25;;;6.10;99.90;;;;;;4969804;28;20340;-73
2023/04/03 05:16:25;;;;;;;17.42;10.48;;;6.00;99.90;;;;;;4956047;28;20490;-73
2023/04/03 05:18:52;;;;;;;18.00;11.10;;;5.90;99.90;;;;;;4966265;28;20086;-73
2023/04/03 05:21:23;;;;;;;19.58;11.93;;;5.90;99.90;;;;;;4963521;28;20031;-73
2023/04/03 05:23:51;;;;;;;18.17;11.02;;;5.80;99.90;;;;;;4955036;28;20073;-73
2023/04/03 05:26:16;;;;;;;18.58;10.68;;;5.80;99.90;;;;;;4957297;28;20019;-73
2023/04/03 05:28:45;;;;;;;19.63;11.13;;;5.80;99.90;;;;;;4951647;28;20042;-73
2023/04/03 05:31:13;;;;;;;16.15;10.63;;;5.80;99.90;;;;;;4948139;28;20134;-73
2023/04/03 05:33:39;;;;;;;19.50;11.20;;;5.70;99.90;;;;;;4940543;29;20043;-74
2023/04/03 05:36:08;;;;;;;20.75;11.45;;;5.70;99.90;;;;;;4969566;28;20387;-71
2023/04/03 05:38:40;;;;;;;18.17;11.23;;;5.70;99.90;;;;;;4973557;28;20050;-72
2023/04/03 05:41:06;;;;;;;19.20;11.80;;;5.70;99.90;;;;;;4954550;29;20028;-73
2023/04/03 05:43:34;;;;;;;19.63;11.90;;;5.70;99.90;;;;;;4954583;28;20054;-74
2023/04/03 05:46:01;;;;;;;18.80;12.38;;;5.70;99.90;;;;;;4957453;28;20195;-73
2023/04/03 05:48:28;;;;;;;18.13;11.35;;;5.70;99.90;;;;;;4957439;28;20023;-74
2023/04/03 05:50:55;;;;;;;18.52;11.38;;;5.70;99.90;;;;;;4973437;28;20082;-73
2023/04/03 05:53:28;;;;;;;19.70;11.27;;;5.70;99.90;;;;;;4957403;28;20031;-72
2023/04/03 05:55:56;;;;;;;20.40;12.60;;;5.70;99.90;;;;;;4973456;28;20031;-72
2023/04/03 05:58:23;;;;;;;17.85;10.80;;;5.70;99.90;;;;;;4957325;28;20031;-73
2023/04/03 06:00:51;;;;;;;21.52;12.18;;;5.70;99.90;;;;;;4957315;28;20031;-73
2023/04/03 06:03:17;;;;;;;19.92;11.77;;;5.70;99.90;;;;;;4957202;28;20061;-73
2023/04/03 06:05:43;;;;;;;18.48;11.02;;;5.70;99.90;;;;;;4957264;28;20058;-72
2023/04/03 06:08:10;;;;;;;20.67;10.60;;;5.70;99.90;;;;;;4974470;28;20023;-71
2023/04/03 06:10:36;;;;;;;19.13;10.98;;;5.60;99.90;;;;;;4957186;28;20031;-73
2023/04/03 06:13:02;;;;;;;17.00;10.45;;;5.70;99.90;;;;;;4956966;28;20541;-75
2023/04/03 06:15:30;;;;;;;16.83;10.77;;;5.60;99.90;;;;;;4974033;28;20027;-73
2023/04/03 06:17:56;;;;;;;17.13;10.23;;;5.60;99.90;;;;;;4974309;28;20110;-75
2023/04/03 06:20:22;;;;;;;19.10;10.70;;;5.60;99.90;;;;;;4956776;28;20138;-73
2023/04/03 06:22:48;;;;;;;20.08;11.23;;;5.60;99.90;;;;;;4957172;28;20018;-74
2023/04/03 06:25:17;;;;;;;18.83;11.27;;;5.70;99.90;;;;;;4973884;28;20034;-74
2023/04/03 06:27:43;;;;;;;20.40;12.27;;;5.70;99.90;;;;;;4974292;28;20493;-73
2023/04/03 06:30:09;;;;;;;18.05;10.10;;;5.70;99.90;;;;;;4973914;28;20027;-73
2023/04/03 06:32:35;;;;;;;19.67;9.68;;;5.70;99.90;;;;;;4974335;28;20034;-74
2023/04/03 06:35:01;;;;;;;15.15;9.20;;;5.80;99.90;;;;;;4973632;28;20049;-75
2023/04/03 06:37:28;;;;;;;16.08;9.93;;;5.70;99.90;;;;;;4974263;28;20041;-74
2023/04/03 06:39:54;;;;;;;15.45;9.38;;;5.70;99.90;;;;;;4974154;28;20410;-73
2023/04/03 06:42:20;;;;;;;17.83;9.93;;;5.70;99.90;;;;;;4973919;28;20422;-73
2023/04/03 06:45:00;;;;;;;14.43;8.50;;;5.60;99.90;;;;;;4956632;28;20019;-72
2023/04/03 06:47:25;;;;;;;14.57;7.90;;;5.70;99.90;;;;;;4973896;28;20486;-73
2023/04/03 06:49:51;;;;;;;17.83;9.68;;;5.70;99.90;;;;;;4973414;28;20050;-73
2023/04/03 06:52:17;;;;;;;16.08;9.43;;;5.70;99.90;;;;;;4973757;28;20063;-74
2023/04/03 06:54:43;;;;;;;14.85;8.55;;;5.70;99.90;;;;;;4986851;28;20030;-73
2023/04/03 06:57:09;;;;;;;16.83;9.80;;;5.60;99.90;;;;;;4973529;28;20534;-74
2023/04/03 06:59:36;;;;;;;16.40;9.95;;;5.60;99.90;;;;;;4974036;28;20035;-74
2023/04/03 07:02:02;;;;;;;13.82;8.35;;;5.70;99.90;;;;;;4956135;28;20082;-73
2023/04/03 07:04:28;;;;;;;15.02;8.60;;;5.70;99.90;;;;;;4973315;28;20019;-74
2023/04/03 07:06:55;;;;;;;15.00;7.95;;;5.70;99.90;;;;;;4973710;28;20494;-73
2023/04/03 07:09:21;;;;;;;16.13;9.43;;;5.70;99.90;;;;;;4973196;28;20023;-73
2023/04/03 07:11:47;;;;;;;25.58;15.48;;;5.70;99.90;;;;;;4973547;28;20030;-75
2023/04/03 07:14:12;;;;;;;18.27;10.23;;;5.80;99.90;;;;;;4973055;28;20124;-74
2023/04/03 07:16:38;;;;;;;15.80;10.50;;;5.80;99.90;;;;;;4973466;28;20026;-73
2023/04/03 07:19:04;;;;;;;34.55;22.88;;;5.80;99.90;;;;;;4973216;28;20543;-74
2023/04/03 07:21:30;;;;;;;30.50;19.50;;;5.80;99.90;;;;;;4973410;28;20031;-74
2023/04/03 07:23:56;;;;;;;23.27;13.98;;;5.90;99.90;;;;;;4973295;28;20371;-75
2023/04/03 07:26:23;;;;;;;26.30;16.13;;;5.90;99.90;;;;;;4973492;28;20023;-75
2023/04/03 07:28:49;;;;;;;36.25;25.63;;;6.00;99.90;;;;;;4972847;28;20459;-75
2023/04/03 07:31:16;;;;;;;24.00;16.35;;;6.10;99.90;;;;;;4972930;28;20114;-73
2023/04/03 07:33:43;;;;;;;24.33;15.50;;;6.10;99.90;;;;;;4973248;28;20037;-73
2023/04/03 07:36:13;;;;;;;22.65;14.05;;;6.20;99.90;;;;;;4972847;28;20122;-74
2023/04/03 07:38:39;;;;;;;23.80;15.20;;;6.20;99.90;;;;;;4972940;28;20027;-74
2023/04/03 07:41:05;;;;;;;22.00;13.98;;;6.30;99.90;;;;;;4972761;28;20022;-74
2023/04/03 07:43:31;;;;;;;24.05;15.85;;;6.40;99.90;;;;;;4972762;28;20134;-73
2023/04/03 07:45:57;;;;;;;23.48;14.15;;;6.40;99.90;;;;;;4972955;28;20113;-74
2023/04/03 07:48:26;;;;;;;27.20;17.50;;;6.50;99.90;;;;;;4972646;28;20427;-72
2023/04/03 07:50:52;;;;;;;29.30;17.67;;;6.50;99.90;;;;;;4972720;28;20034;-73
2023/04/03 07:53:18;;;;;;;26.90;17.25;;;6.60;99.90;;;;;;4972443;28;20111;-73
2023/04/03 07:55:51;;;;;;;22.63;14.23;;;6.70;99.90;;;;;;4972977;28;20023;-73
2023/04/03 07:58:18;;;;;;;18.98;10.10;;;6.80;99.90;;;;;;4972399;28;20034;-74
2023/04/03 08:00:44;;;;;;;16.45;9.27;;;6.80;99.90;;;;;;4972755;28;20479;-74
2023/04/03 08:03:11;;;;;;;17.35;9.60;;;6.90;99.90;;;;;;4972961;28;20035;-74
2023/04/03 08:05:38;;;;;;;14.93;8.32;;;7.00;99.90;;;;;;4973819;28;20053;-73
2023/04/03 08:08:05;;;;;;;17.15;10.52;;;7.10;99.90;;;;;;4959177;28;20414;-73
2023/04/03 08:10:31;;;;;;;16.63;9.20;;;7.10;99.90;;;;;;4976759;28;20545;-73
2023/04/03 08:12:57;;;;;;;16.88;10.02;;;7.20;99.90;;;;;;4976495;28;20034;-72
2023/04/03 08:15:23;;;;;;;16.88;9.57;;;7.10;99.90;;;;;;4976642;28;20494;-73
2023/04/03 08:17:50;;;;;;;17.52;9.68;;;7.00;99.90;;;;;;4976473;28;20395;-73
2023/04/03 08:20:16;;;;;;;17.23;10.07;;;7.10;99.90;;;;;;4975892;28;20363;-74
2023/04/03 08:22:42;;;;;;;17.33;10.30;;;7.10;99.90;;;;;;4963747;28;20034;-73
2023/04/03 08:25:08;;;;;;;18.83;9.93;;;7.10;99.90;;;;;;4976220;28;20030;-73
2023/04/03 08:27:34;;;;;;;24.17;11.02;;;7.10;99.90;;;;;;4976343;28;20085;-72
2023/04/03 08:30:00;;;;;;;19.98;10.60;;;7.20;99.90;;;;;;4976140;28;20105;-72
2023/04/03 08:32:26;;;;;;;18.27;10.38;;;7.20;99.90;;;;;;4976766;28;20019;-74
2023/04/03 08:34:52;;;;;;;17.38;10.38;;;7.20;99.90;;;;;;4975881;28;20121;-72
2023/04/03 08:37:18;;;;;;;17.33;10.65;;;7.20;99.90;;;;;;4976307;28;20097;-73
2023/04/03 08:39:45;;;;;;;15.45;9.80;;;7.30;99.90;;;;;;4975841;28;20399;-73
2023/04/03 08:42:43;;;;;;;16.65;9.73;;;7.40;99.90;;;;;;4975756;28;20114;-72
2023/04/03 08:45:21;;;;;;;17.33;10.27;;;7.40;99.90;;;;;;4947644;28;20043;-73
2023/04/03 08:47:56;;;;;;;17.83;11.10;;;7.60;99.90;;;;;;4976087;28;20023;-72
2023/04/03 08:50:31;;;;;;;16.88;9.88;;;7.70;99.90;;;;;;4976072;28;20363;-73
2023/04/03 08:52:58;;;;;;;16.85;9.75;;;7.80;99.90;;;;;;4975909;28;20118;-73
2023/04/03 08:55:26;;;;;;;17.67;10.45;;;7.80;99.90;;;;;;4975617;28;20057;-72
2023/04/03 08:58:15;;;;;;;16.52;8.70;;;7.90;99.90;;;;;;4975389;28;20385;-72
2023/04/03 09:00:58;;;;;;;17.10;9.85;;;7.90;99.90;;;;;;4975484;28;20027;-73
2023/04/03 09:03:25;;;;;;;16.02;8.75;;;8.00;99.90;;;;;;4976026;28;20114;-73
2023/04/03 09:06:05;;;;;;;14.70;8.82;;;7.90;99.90;;;;;;4975123;28;20015;-73
2023/04/03 09:08:42;;;;;;;15.30;8.80;;;7.90;99.90;;;;;;4975688;28;20482;-72
2023/04/03 09:11:21;;;;;;;15.10;9.38;;;7.90;99.90;;;;;;4975324;28;20027;-73
2023/04/03 09:14:13;;;;;;;16.08;9.40;;;7.90;99.90;;;;;;4974958;28;20050;-72
2023/04/03 09:16:54;;;;;;;15.00;9.13;;;8.00;99.90;;;;;;4974854;28;20405;-73
2023/04/03 09:20:28;;;;;;;17.05;9.40;;;8.00;99.90;;;;;;4974953;28;20019;-72
2023/04/03 09:22:55;;;;;;;15.40;9.10;;;8.30;99.90;;;;;;4878361;29;20045;-74
2023/04/03 09:25:37;;;;;;;26.52;10.02;;;8.50;99.90;;;;;;4877772;29;20040;-73
2023/04/03 09:28:09;;;;;;;21.52;11.63;;;8.50;99.90;;;;;;4877904;29;20041;-73
2023/04/03 09:30:37;;;;;;;17.50;10.45;;;8.70;99.90;;;;;;4877879;29;20056;-74
2023/04/03 09:33:03;;;;;;;19.95;12.13;;;8.70;99.90;;;;;;4877856;29;20049;-74
2023/04/03 09:35:33;;;;;;;18.58;10.63;;;8.80;99.90;;;;;;4878078;29;20040;-74
2023/04/03 09:38:01;;;;;;;15.35;8.63;;;8.70;99.90;;;;;;4877892;29;20100;-74
2023/04/03 09:40:30;;;;;;;19.27;9.77;;;9.00;99.90;;;;;;4877532;29;20547;-74
2023/04/03 09:42:59;;;;;;;14.05;8.68;;;9.00;99.90;;;;;;4877783;29;20053;-74
2023/04/03 09:45:32;;;;;;;22.15;10.25;;;9.30;99.90;;;;;;4877714;29;20124;-73
2023/04/03 09:48:28;;;;;;;15.18;8.77;;;9.20;99.90;;;;;;4877663;29;20041;-74
2023/04/03 09:50:58;;;;;;;17.25;9.65;;;9.10;99.90;;;;;;4858980;29;20196;-75
2023/04/03 09:53:27;;;;;;;16.75;9.27;;;9.10;99.90;;;;;;4858653;29;20181;-72
2023/04/03 09:55:53;;;;;;;15.07;9.95;;;9.20;99.90;;;;;;4862483;29;20041;-74
2023/04/03 09:58:29;;;;;;;16.20;10.25;;;9.20;99.90;;;;;;4920329;29;20443;-74
2023/04/03 10:01:00;;;;;;;14.68;8.43;;;9.40;99.90;;;;;;4952336;28;20050;-73
2023/04/03 10:03:35;;;;;;;17.23;10.65;;;9.30;99.90;;;;;;4952955;29;20035;-74
2023/04/03 10:06:20;;;;;;;13.70;8.32;;;9.30;99.90;;;;;;4952855;28;20110;-74
2023/04/03 10:09:04;;;;;;;14.23;7.57;;;9.30;99.90;;;;;;4953005;29;20043;-74
2023/04/03 10:11:30;;;;;;;16.30;8.57;;;9.30;99.90;;;;;;4937035;29;20518;-74
2023/04/03 10:14:00;;;;;;;15.07;9.27;;;9.40;99.90;;;;;;4952272;29;20546;-73
2023/04/03 10:16:38;;;;;;;15.00;8.75;;;9.40;99.90;;;;;;4952666;28;20527;-71
2023/04/03 10:19:32;;;;;;;14.60;8.07;;;9.50;99.90;;;;;;4952870;28;20058;-72
2023/04/03 10:22:04;;;;;;;14.65;8.25;;;9.30;99.90;;;;;;4951846;29;20403;-72
2023/04/03 10:24:47;;;;;;;17.20;9.45;;;9.10;99.90;;;;;;4952355;29;20107;-72
2023/04/03 10:27:22;;;;;;;16.55;10.18;;;9.00;99.90;;;;;;4962930;28;20090;-73
2023/04/03 10:29:59;;;;;;;13.25;8.25;;;8.80;99.90;;;;;;4973563;28;20104;-74
2023/04/03 10:32:53;;;;;;;19.13;9.93;;;8.90;99.90;;;;;;4956177;28;20023;-75
2023/04/03 10:35:52;;;;;;;15.60;8.82;;;9.00;99.90;;;;;;4974130;28;20038;-73
2023/04/03 10:38:30;;;;;;;16.45;8.70;;;9.10;99.90;;;;;;4973713;28;20390;-73
2023/04/03 10:41:12;;;;;;;14.13;8.45;;;9.20;99.90;;;;;;4974169;28;20049;-74
2023/04/03 10:44:02;;;;;;;15.95;8.93;;;9.30;99.90;;;;;;4973797;28;20039;-73
2023/04/03 10:46:36;;;;;;;15.20;8.35;;;9.50;99.90;;;;;;4973691;28;20035;-74
2023/04/03 10:49:17;;;;;;;14.15;7.47;;;9.40;99.90;;;;;;4973968;28;20109;-74
2023/04/03 10:52:02;;;;;;;14.82;8.93;;;9.50;99.90;;;;;;4973377;28;20386;-72
2023/04/03 10:54:44;;;;;;;15.45;8.38;;;9.50;99.90;;;;;;4956203;28;20113;-76
2023/04/03 10:57:11;;;;;;;13.60;8.27;;;9.20;99.90;;;;;;4973545;28;20549;-72
2023/04/03 11:00:04;;;;;;;13.75;7.90;;;9.10;99.90;;;;;;4973889;28;20038;-72
2023/04/03 11:02:45;;;;;;;14.60;8.20;;;9.10;99.90;;;;;;4973121;28;20066;-73
2023/04/03 11:05:30;;;;;;;17.15;9.82;;;9.10;99.90;;;;;;4973190;28;20086;-74
2023/04/03 11:07:59;;;;;;;16.05;9.02;;;9.20;99.90;;;;;;4973281;28;20413;-71
2023/04/03 11:10:48;;;;;;;16.30;8.80;;;9.40;99.90;;;;;;4972707;28;20634;-73
2023/04/03 11:13:21;;;;;;;16.73;9.63;;;9.20;99.90;;;;;;4973147;28;20043;-73
2023/04/03 11:15:46;;;;;;;14.97;8.27;;;9.10;99.90;;;;;;4973310;28;20065;-71
2023/04/03 11:18:21;;;;;;;16.55;9.13;;;9.00;99.90;;;;;;4972988;28;20058;-73
2023/04/03 11:21:06;;;;;;;18.48;10.20;;;8.80;99.90;;;;;;4973230;28;20113;-73
2023/04/03 11:23:36;;;;;;;14.40;8.82;;;9.00;99.90;;;;;;4972882;28;20038;-72
2023/04/03 11:26:25;;;;;;;16.58;9.63;;;9.20;99.90;;;;;;4972993;28;20066;-75
2023/04/03 11:29:03;;;;;;;17.40;10.18;;;9.30;99.90;;;;;;4973600;28;20026;-73
2023/04/03 11:31:38;;;;;;;15.20;9.02;;;9.30;99.90;;;;;;4973017;28;20031;-74
2023/04/03 11:34:16;;;;;;;16.55;9.50;;;9.30;99.90;;;;;;4973199;28;20047;-75
2023/04/03 11:36:53;;;;;;;16.60;10.63;;;9.30;99.90;;;;;;4960982;28;20049;-74
2023/04/03 11:39:32;;;;;;;13.88;9.00;;;9.40;99.90;;;;;;4972988;28;20030;-74
2023/04/03 11:42:22;;;;;;;17.08;9.88;;;9.50;99.90;;;;;;4972140;28;20035;-73
2023/04/03 11:44:48;;;;;;;14.80;9.32;;;9.50;99.90;;;;;;4972833;28;20395;-74
2023/04/03 11:47:47;;;;;;;17.13;9.25;;;9.50;99.90;;;;;;4972946;28;20031;-74
2023/04/03 11:50:48;;;;;;;16.08;10.13;;;9.30;99.90;;;;;;4973089;28;20084;-71
2023/04/03 11:53:14;;;;;;;15.27;9.55;;;9.60;99.90;;;;;;4894212;29;20045;-73
2023/04/03 11:55:51;;;;;;;18.95;10.38;;;9.60;99.90;;;;;;4894466;29;20041;-73
2023/04/03 11:58:19;;;;;;;16.55;9.73;;;9.70;99.90;;;;;;4894474;29;20028;-74
2023/04/03 12:00:49;;;;;;;16.55;9.77;;;9.80;99.90;;;;;;4894149;29;20045;-72
2023/04/03 12:03:27;;;;;;;15.23;9.45;;;9.70;99.90;;;;;;4894686;29;20038;-74
2023/04/03 12:05:57;;;;;;;16.10;9.50;;;9.80;99.90;;;;;;4894228;29;20430;-71
2023/04/03 12:08:37;;;;;;;13.48;7.78;;;9.90;99.90;;;;;;4894277;29;20041;-72
2023/04/03 12:11:12;;;;;;;14.73;8.38;;;9.80;99.90;;;;;;4894450;29;20032;-73
2023/04/03 12:13:50;;;;;;;15.23;9.35;;;9.80;99.90;;;;;;4894296;29;20057;-74
2023/04/03 12:16:36;;;;;;;14.90;8.55;;;9.60;99.90;;;;;;4894203;29;20032;-71
2023/04/03 12:19:24;;;;;;;18.60;10.02;;;9.70;99.90;;;;;;4894339;29;20536;-71
2023/04/03 12:21:57;;;;;;;15.88;9.07;;;9.60;99.90;;;;;;4894048;29;20044;-74
2023/04/03 12:24:26;;;;;;;18.75;9.63;;;9.70;99.90;;;;;;4894139;29;20032;-73
2023/04/03 12:27:01;;;;;;;16.95;9.50;;;9.80;99.90;;;;;;4922774;28;20038;-72
2023/04/03 12:29:33;;;;;;;17.33;9.98;;;9.80;99.90;;;;;;4972574;28;20109;-72
2023/04/03 12:32:08;;;;;;;16.20;9.05;;;10.00;99.90;;;;;;4972624;28;20038;-73
2023/04/03 12:35:05;;;;;;;14.15;7.75;;;9.90;99.90;;;;;;4972676;28;20053;-74
2023/04/03 12:38:03;;;;;;;16.00;9.40;;;10.10;99.90;;;;;;4972528;28;20038;-73
2023/04/03 12:40:41;;;;;;;17.45;9.82;;;10.00;99.90;;;;;;4960344;28;20039;-73
2023/04/03 12:43:28;;;;;;;13.70;8.70;;;9.90;99.90;;;;;;4972177;28;20051;-74
2023/04/03 12:46:06;;;;;;;16.05;9.55;;;9.80;99.90;;;;;;4972379;28;20121;-72
2023/04/03 12:48:48;;;;;;;20.02;11.77;;;9.90;99.90;;;;;;4971993;28;20027;-75
2023/04/03 12:51:36;;;;;;;20.00;11.07;;;9.70;99.90;;;;;;4972241;28;20049;-74
2023/04/03 12:54:13;;;;;;;19.48;12.63;;;9.60;99.90;;;;;;4975910;28;20633;-73
2023/04/03 12:56:39;;;;;;;17.58;9.73;;;9.50;99.90;;;;;;4975998;28;20037;-73
2023/04/03 12:59:22;;;;;;;20.85;9.95;;;9.40;99.90;;;;;;4975840;28;20475;-73
2023/04/03 13:02:01;;;;;;;14.57;9.27;;;9.40;99.90;;;;;;4964378;28;20383;-71